Time;durP1;ratioP1;P1;durP2;ratioP2;P2;SDS_P1;SDS_P2;PMS_P1;PMS_P2;Temp;Humidity;BMP_temperature;BMP_pressure;BME280_temperature;BME280_humidity;BME280_pressure;Samples;Min_cycle;Max_cycle;Signal;HPM_P1;HPM_P2
2021/10/30 00:02:11;;;;;;;;;;;20.80;57.00;;;;;;5074565;28;1898;-71
2021/10/30 00:04:36;;;;;;;;;;;20.90;57.10;;;;;;5093167;28;1069;-71
2021/10/30 00:07:02;;;;;;;;;;;20.80;57.10;;;;;;5093158;28;1461;-72
2021/10/30 00:09:27;;;;;;;;;;;20.90;57.10;;;;;;5093505;28;1388;-71
2021/10/30 00:11:53;;;;;;;;;;;20.90;57.20;;;;;;5093138;28;1396;-72
2021/10/30 00:14:18;;;;;;;;;;;20.90;57.20;;;;;;5075319;28;1055;-70
2021/10/30 00:16:44;;;;;;;;;;;20.80;57.20;;;;;;5092613;28;1298;-70
2021/10/30 00:19:09;;;;;;;;;;;20.80;57.30;;;;;;5092851;28;1236;-71
2021/10/30 00:21:34;;;;;;;;;;;20.80;57.20;;;;;;5088224;28;1902;-72
2021/10/30 00:24:00;;;;;;;;;;;20.80;57.30;;;;;;5072681;28;1298;-71
2021/10/30 00:26:26;;;;;;;;;;;20.80;57.30;;;;;;5072618;28;1422;-71
2021/10/30 00:28:51;;;;;;;;;;;20.80;57.30;;;;;;5072647;28;1048;-71
2021/10/30 00:31:17;;;;;;;;;;;20.80;57.30;;;;;;5072202;28;1344;-71
2021/10/30 00:33:42;;;;;;;;;;;20.80;57.30;;;;;;5072640;28;1057;-71
2021/10/30 00:36:08;;;;;;;;;;;20.80;57.40;;;;;;5072975;28;1348;-71
2021/10/30 00:38:34;;;;;;;;;;;20.80;57.40;;;;;;5065757;28;1222;-72
2021/10/30 00:41:02;;;;;;;;;;;20.80;57.40;;;;;;5092103;28;1960;-71
2021/10/30 00:43:28;;;;;;;;;;;20.80;57.40;;;;;;5093178;28;1267;-72
2021/10/30 00:45:53;;;;;;;;;;;20.70;57.40;;;;;;5096766;28;1350;-71
2021/10/30 00:48:18;;;;;;;;;;;20.70;57.40;;;;;;5078102;28;1382;-71
2021/10/30 00:50:44;;;;;;;;;;;20.80;57.50;;;;;;5096353;28;1309;-70
2021/10/30 00:53:09;;;;;;;;;;;20.70;57.50;;;;;;5096293;28;944;-70
2021/10/30 00:55:35;;;;;;;;;;;20.80;57.50;;;;;;5078233;28;1298;-71
2021/10/30 00:58:01;;;;;;;;;;;20.70;57.50;;;;;;5096665;28;1137;-71
2021/10/30 01:00:26;;;;;;;;;;;20.70;57.50;;;;;;5097033;28;1356;-71
2021/10/30 01:02:52;;;;;;;;;;;20.70;57.50;;;;;;5077865;28;1903;-72
2021/10/30 01:05:17;;;;;;;;;;;20.70;57.50;;;;;;5096658;28;1270;-72
2021/10/30 01:07:43;;;;;;;;;;;20.70;57.50;;;;;;5096647;28;1067;-72
2021/10/30 01:10:08;;;;;;;;;;;20.70;57.60;;;;;;5096256;28;1107;-71
2021/10/30 01:12:34;;;;;;;;;;;20.70;57.60;;;;;;5077559;28;1385;-71
2021/10/30 01:14:59;;;;;;;;;;;20.70;57.60;;;;;;5096343;28;1323;-71
2021/10/30 01:17:24;;;;;;;;;;;20.70;57.70;;;;;;5096021;28;1319;-71
2021/10/30 01:19:51;;;;;;;;;;;20.70;57.70;;;;;;5095696;28;1192;-71
2021/10/30 01:22:19;;;;;;;;;;;20.70;57.70;;;;;;5084871;28;1959;-70
2021/10/30 01:24:44;;;;;;;;;;;20.70;57.70;;;;;;5075274;28;1661;-71
2021/10/30 01:27:10;;;;;;;;;;;20.70;57.70;;;;;;5075528;28;1370;-71
2021/10/30 01:29:36;;;;;;;;;;;20.70;57.70;;;;;;5076177;28;1334;-71
2021/10/30 01:32:01;;;;;;;;;;;20.70;57.70;;;;;;5074854;28;1067;-71
2021/10/30 01:34:27;;;;;;;;;;;20.70;57.70;;;;;;5075295;28;1277;-72
2021/10/30 01:36:53;;;;;;;;;;;20.70;57.70;;;;;;5068010;28;1282;-71
2021/10/30 01:39:18;;;;;;;;;;;20.60;57.70;;;;;;5077433;28;1101;-71
2021/10/30 01:41:44;;;;;;;;;;;20.70;57.80;;;;;;5095544;28;1959;-71
2021/10/30 01:44:10;;;;;;;;;;;20.60;57.70;;;;;;5095687;28;1408;-71
2021/10/30 01:46:35;;;;;;;;;;;20.70;57.90;;;;;;5077625;28;1381;-71
2021/10/30 01:49:01;;;;;;;;;;;20.70;57.80;;;;;;5060349;28;1047;-71
2021/10/30 01:51:26;;;;;;;;;;;20.70;57.80;;;;;;5077049;28;1273;-71
2021/10/30 01:53:52;;;;;;;;;;;20.60;57.80;;;;;;5076940;28;1457;-71
2021/10/30 01:56:18;;;;;;;;;;;20.70;57.90;;;;;;5094713;28;1289;-71
2021/10/30 01:58:43;;;;;;;;;;;20.60;57.80;;;;;;5095371;28;1262;-71
2021/10/30 02:01:09;;;;;;;;;;;20.60;57.90;;;;;;5076374;28;1901;-71
2021/10/30 02:03:34;;;;;;;;;;;20.60;57.90;;;;;;5095246;28;1336;-71
2021/10/30 02:06:01;;;;;;;;;;;20.60;57.90;;;;;;5077206;28;1217;-72
2021/10/30 02:08:27;;;;;;;;;;;20.60;57.90;;;;;;5094437;28;1496;-71
2021/10/30 02:10:52;;;;;;;;;;;20.60;57.90;;;;;;5073943;28;1255;-71
2021/10/30 02:13:19;;;;;;;;;;;20.60;57.90;;;;;;5088367;28;1251;-71
2021/10/30 02:15:44;;;;;;;;;;;20.60;58.00;;;;;;5074624;28;1311;-71
2021/10/30 02:18:10;;;;;;;;;;;20.60;58.00;;;;;;5074796;28;1310;-70
2021/10/30 02:20:35;;;;;;;;;;;20.60;57.90;;;;;;5092691;28;1390;-70
2021/10/30 02:23:01;;;;;;;;;;;20.60;58.00;;;;;;5090010;28;1882;-69
2021/10/30 02:25:26;;;;;;;;;;;20.60;58.00;;;;;;5092613;28;1331;-70
2021/10/30 02:27:52;;;;;;;;;;;20.60;58.00;;;;;;5073108;28;1298;-70
2021/10/30 02:30:17;;;;;;;;;;;20.60;58.00;;;;;;5075143;28;1492;-70
2021/10/30 02:32:43;;;;;;;;;;;20.60;58.00;;;;;;5074055;28;1279;-70
2021/10/30 02:35:09;;;;;;;;;;;20.60;58.10;;;;;;5095773;28;1175;-71
2021/10/30 02:37:34;;;;;;;;;;;20.60;58.10;;;;;;5093324;28;1294;-71
2021/10/30 02:40:00;;;;;;;;;;;20.60;58.10;;;;;;5093921;28;1179;-71
2021/10/30 02:42:25;;;;;;;;;;;20.60;58.10;;;;;;5074117;28;1902;-71
2021/10/30 02:44:51;;;;;;;;;;;20.60;58.10;;;;;;5092447;28;1274;-71
2021/10/30 02:47:16;;;;;;;;;;;20.60;58.10;;;;;;5091034;28;1298;-71
2021/10/30 02:49:41;;;;;;;;;;;20.60;58.10;;;;;;5098787;22;2043;-70
2021/10/30 02:52:07;;;;;;;;;;;20.60;58.10;;;;;;5052573;28;1315;-70
2021/10/30 02:54:32;;;;;;;;;;;20.60;58.10;;;;;;5052740;28;1242;-69
2021/10/30 02:56:58;;;;;;;;;;;20.60;58.20;;;;;;5050373;28;1189;-69
2021/10/30 02:59:23;;;;;;;;;;;20.60;58.20;;;;;;5055121;28;1341;-67
2021/10/30 03:01:48;;;;;;;;;;;20.50;58.20;;;;;;5072301;28;1894;-68
2021/10/30 03:04:14;;;;;;;;;;;20.50;58.20;;;;;;5072604;28;1137;-69
2021/10/30 03:06:39;;;;;;;;;;;20.50;58.10;;;;;;5072195;28;1199;-69
2021/10/30 03:09:05;;;;;;;;;;;20.50;58.20;;;;;;5071941;28;1357;-70
2021/10/30 03:11:30;;;;;;;;;;;20.50;58.20;;;;;;5072272;28;1215;-69
2021/10/30 03:13:56;;;;;;;;;;;20.50;58.20;;;;;;5072192;28;1259;-70
2021/10/30 03:16:21;;;;;;;;;;;20.50;58.20;;;;;;5053991;28;1323;-69
2021/10/30 03:18:47;;;;;;;;;;;20.50;58.20;;;;;;5071916;28;1203;-70
2021/10/30 03:21:12;;;;;;;;;;;20.50;58.20;;;;;;5053815;28;1969;-69
2021/10/30 03:23:38;;;;;;;;;;;20.50;58.20;;;;;;5072224;28;1151;-71
2021/10/30 03:26:03;;;;;;;;;;;20.50;58.30;;;;;;5058013;28;1905;-70
2021/10/30 03:28:29;;;;;;;;;;;20.50;58.20;;;;;;5068805;28;1901;-69
2021/10/30 03:30:54;;;;;;;;;;;20.50;58.20;;;;;;5071829;28;1448;-70
2021/10/30 03:33:20;;;;;;;;;;;20.60;58.30;;;;;;5058680;28;1880;-71
2021/10/30 03:35:45;;;;;;;;;;;20.60;58.20;;;;;;5077756;28;1559;-74
2021/10/30 03:38:11;;;;;;;;;;;20.60;58.10;;;;;;5055791;28;1398;-75
2021/10/30 03:40:36;;;;;;;;;;;20.60;58.10;;;;;;5053290;28;1536;-71
2021/10/30 03:43:01;;;;;;;;;;;20.70;58.00;;;;;;5075336;28;1955;-71
2021/10/30 03:45:27;;;;;;;;;;;20.70;58.00;;;;;;5073654;28;1222;-74
2021/10/30 03:47:52;;;;;;;;;;;20.70;57.80;;;;;;5092870;28;1371;-74
2021/10/30 03:50:18;;;;;;;;;;;20.80;57.80;;;;;;5079820;28;1348;-72
2021/10/30 03:52:43;;;;;;;;;;;20.80;57.70;;;;;;5072715;28;1398;-70
2021/10/30 03:55:09;;;;;;;;;;;20.80;57.70;;;;;;5073902;28;1384;-71
2021/10/30 03:57:34;;;;;;;;;;;20.80;57.60;;;;;;5074544;28;1672;-69
2021/10/30 04:00:00;;;;;;;;;;;20.80;57.50;;;;;;5091821;28;1393;-69
2021/10/30 04:02:25;;;;;;;;;;;20.80;57.50;;;;;;5073151;28;1902;-68
2021/10/30 04:04:51;;;;;;;;;;;20.90;57.40;;;;;;5091460;28;1375;-67
2021/10/30 04:07:16;;;;;;;;;;;20.90;57.40;;;;;;5091789;28;1623;-67
2021/10/30 04:09:42;;;;;;;;;;;20.90;57.30;;;;;;5073308;28;1652;-67
2021/10/30 04:12:08;;;;;;;;;;;20.90;57.30;;;;;;5090971;28;1402;-67
2021/10/30 04:14:33;;;;;;;;;;;21.00;57.30;;;;;;5073848;28;1791;-67
2021/10/30 04:16:58;;;;;;;;;;;21.00;57.80;;;;;;5077736;28;1463;-67
2021/10/30 04:19:24;;;;;;;;;;;21.00;57.20;;;;;;5091421;28;1396;-68
2021/10/30 04:21:49;;;;;;;;;;;21.00;57.20;;;;;;5055360;28;1906;-69
2021/10/30 04:24:15;;;;;;;;;;;21.00;57.20;;;;;;5070177;28;1392;-70
2021/10/30 04:26:40;;;;;;;;;;;21.00;57.20;;;;;;5090669;28;1687;-71
2021/10/30 04:29:06;;;;;;;;;;;21.00;57.20;;;;;;5091751;28;1418;-69
2021/10/30 04:31:31;;;;;;;;;;;21.00;57.10;;;;;;5091234;28;1444;-69
2021/10/30 04:34:02;;;;;;;;;;;21.00;57.10;;;;;;5092015;28;1078;-69
2021/10/30 04:36:29;;;;;;;;;;;21.00;57.10;;;;;;5074789;28;1190;-69
2021/10/30 04:38:55;;;;;;;;;;;21.10;57.10;;;;;;5074712;28;1663;-70
2021/10/30 04:41:21;;;;;;;;;;;21.10;57.10;;;;;;5073685;28;1906;-70
2021/10/30 04:43:46;;;;;;;;;;;21.10;57.10;;;;;;5074800;28;1285;-68
2021/10/30 04:46:16;;;;;;;;;;;21.10;57.00;;;;;;5074367;28;1706;-70
2021/10/30 04:48:41;;;;;;;;;;;21.10;57.00;;;;;;5092408;28;1664;-69
2021/10/30 04:51:07;;;;;;;;;;;21.10;57.00;;;;;;5091372;28;1362;-68
2021/10/30 04:53:34;;;;;;;;;;;21.10;57.00;;;;;;5092323;28;1396;-68
2021/10/30 04:56:00;;;;;;;;;;;21.10;57.00;;;;;;5092031;28;1662;-68
2021/10/30 04:58:25;;;;;;;;;;;21.10;57.00;;;;;;5092359;28;1284;-68
2021/10/30 05:00:50;;;;;;;;;;;21.10;56.90;;;;;;5073638;28;1659;-68
2021/10/30 05:03:16;;;;;;;;;;;21.10;56.90;;;;;;5091634;28;1957;-68
2021/10/30 05:05:41;;;;;;;;;;;21.10;56.90;;;;;;5092039;28;1718;-69
2021/10/30 05:08:07;;;;;;;;;;;21.10;56.90;;;;;;5092210;28;1766;-68
2021/10/30 05:10:32;;;;;;;;;;;21.10;56.90;;;;;;5092047;28;1301;-68
2021/10/30 05:12:58;;;;;;;;;;;21.20;57.00;;;;;;5091007;28;1644;-68
2021/10/30 05:15:23;;;;;;;;;;;21.20;56.90;;;;;;5085047;28;1502;-69
2021/10/30 05:17:49;;;;;;;;;;;21.10;56.90;;;;;;5085482;28;1675;-71
2021/10/30 05:20:14;;;;;;;;;;;21.10;56.90;;;;;;5069544;28;1625;-71
2021/10/30 05:22:39;;;;;;;;;;;21.20;56.90;;;;;;5071325;28;1867;-71
2021/10/30 05:25:05;;;;;;;;;;;21.20;56.90;;;;;;5073467;28;1440;-71
2021/10/30 05:27:31;;;;;;;;;;;21.20;56.90;;;;;;5092362;28;1667;-72
2021/10/30 05:29:56;;;;;;;;;;;21.20;56.90;;;;;;5056979;28;1659;-71
2021/10/30 05:32:21;;;;;;;;;;;21.20;56.90;;;;;;5094309;28;1343;-72
2021/10/30 05:34:47;;;;;;;;;;;21.20;56.90;;;;;;5077566;28;1213;-71
2021/10/30 05:37:13;;;;;;;;;;;21.20;56.90;;;;;;5077640;28;1239;-71
2021/10/30 05:39:39;;;;;;;;;;;21.20;56.90;;;;;;5095569;28;1397;-71
2021/10/30 05:42:05;;;;;;;;;;;21.20;56.90;;;;;;5076694;28;1906;-71
2021/10/30 05:44:32;;;;;;;;;;;21.20;56.90;;;;;;5060903;28;1677;-72
2021/10/30 05:46:57;;;;;;;;;;;21.20;56.90;;;;;;5077284;28;1786;-71
2021/10/30 05:49:23;;;;;;;;;;;21.20;56.90;;;;;;5094929;28;1405;-71
2021/10/30 05:51:49;;;;;;;;;;;21.20;57.00;;;;;;5077635;28;1459;-70
2021/10/30 05:54:14;;;;;;;;;;;21.20;56.80;;;;;;5095098;28;1440;-69
2021/10/30 05:56:39;;;;;;;;;;;21.20;56.90;;;;;;5095187;28;1356;-69
2021/10/30 05:59:05;;;;;;;;;;;21.20;56.90;;;;;;5095347;28;1435;-68
2021/10/30 06:01:30;;;;;;;;;;;21.20;56.80;;;;;;5094030;28;1914;-68
2021/10/30 06:03:56;;;;;;;;;;;21.20;56.80;;;;;;5094888;28;1717;-68
2021/10/30 06:06:21;;;;;;;;;;;21.20;56.80;;;;;;5094889;28;1646;-68
2021/10/30 06:08:47;;;;;;;;;;;21.20;56.80;;;;;;5095150;28;1440;-69
2021/10/30 06:11:12;;;;;;;;;;;21.20;56.80;;;;;;5094719;28;1697;-68
2021/10/30 06:13:38;;;;;;;;;;;21.20;56.80;;;;;;5094928;28;1405;-69
2021/10/30 06:16:03;;;;;;;;;;;21.20;56.80;;;;;;5082589;28;1295;-69
2021/10/30 06:18:28;;;;;;;;;;;21.20;56.80;;;;;;5093211;28;1651;-69
2021/10/30 06:20:54;;;;;;;;;;;21.20;56.80;;;;;;5084059;28;1667;-69
2021/10/30 06:23:19;;;;;;;;;;;21.20;56.90;;;;;;5079739;28;1906;-70
2021/10/30 06:25:46;;;;;;;;;;;21.20;56.80;;;;;;5094790;28;1273;-69
2021/10/30 06:28:12;;;;;;;;;;;21.20;56.80;;;;;;5094099;28;1653;-69
2021/10/30 06:30:37;;;;;;;;;;;21.20;57.40;;;;;;5076604;28;1346;-68
2021/10/30 06:33:03;;;;;;;;;;;21.20;56.90;;;;;;5094082;28;1366;-70
2021/10/30 06:35:28;;;;;;;;;;;21.20;56.80;;;;;;5094875;28;1712;-69
2021/10/30 06:37:56;;;;;;;;;;;21.20;56.80;;;;;;5094058;28;1688;-69
2021/10/30 06:40:21;;;;;;;;;;;21.20;56.80;;;;;;5094306;28;1255;-69
2021/10/30 06:42:46;;;;;;;;;;;21.20;56.80;;;;;;5092910;28;1901;-69
2021/10/30 06:45:12;;;;;;;;;;;21.20;56.80;;;;;;5094276;28;1386;-70
2021/10/30 06:47:37;;;;;;;;;;;21.20;56.80;;;;;;5076180;28;1442;-70
2021/10/30 06:50:04;;;;;;;;;;;21.20;56.80;;;;;;5093817;28;1694;-69
2021/10/30 06:52:36;;;;;;;;;;;21.30;56.80;;;;;;5093095;28;1377;-69
2021/10/30 06:55:05;;;;;;;;;;;21.30;56.70;;;;;;5093987;28;1634;-68
2021/10/30 06:57:30;;;;;;;;;;;21.40;56.70;;;;;;5076118;28;1747;-68
2021/10/30 06:59:56;;;;;;;;;;;21.50;56.60;;;;;;5093569;28;1395;-68
2021/10/30 07:02:21;;;;;;;;;;;21.50;56.50;;;;;;5093004;28;1960;-68
2021/10/30 07:04:47;;;;;;;;;;;21.60;56.40;;;;;;5093693;28;1357;-70
2021/10/30 07:07:12;;;;;;;;;;;21.70;56.20;;;;;;5093853;28;1434;-70
2021/10/30 07:09:37;;;;;;;;;;;21.80;56.00;;;;;;5093682;28;1442;-70
2021/10/30 07:12:03;;;;;;;;;;;21.90;55.80;;;;;;5073669;28;1378;-70
2021/10/30 07:14:28;;;;;;;;;;;22.00;55.60;;;;;;5071576;28;1672;-70
2021/10/30 07:16:54;;;;;;;;;;;22.10;55.50;;;;;;5078950;28;1573;-69
2021/10/30 07:19:20;;;;;;;;;;;22.20;55.30;;;;;;5093640;28;1676;-70
2021/10/30 07:21:45;;;;;;;;;;;22.20;55.10;;;;;;5079034;28;1898;-70
2021/10/30 07:24:10;;;;;;;;;;;22.30;55.00;;;;;;5093377;28;1098;-70
2021/10/30 07:26:36;;;;;;;;;;;22.40;54.90;;;;;;5075168;28;1400;-69
2021/10/30 07:29:02;;;;;;;;;;;22.40;54.70;;;;;;5093635;28;1379;-69
2021/10/30 07:31:27;;;;;;;;;;;22.50;54.70;;;;;;5074301;28;1653;-69
2021/10/30 07:33:52;;;;;;;;;;;22.50;54.60;;;;;;5093540;28;1558;-68
2021/10/30 07:36:18;;;;;;;;;;;22.50;54.50;;;;;;5093484;28;1700;-68
2021/10/30 07:38:43;;;;;;;;;;;22.50;54.40;;;;;;5093222;28;1642;-68
2021/10/30 07:41:09;;;;;;;;;;;22.60;54.40;;;;;;5091945;28;1275;-68
2021/10/30 07:43:34;;;;;;;;;;;22.60;54.30;;;;;;5093277;28;1898;-68
2021/10/30 07:45:59;;;;;;;;;;;22.60;54.30;;;;;;5093132;28;1156;-68
2021/10/30 07:48:25;;;;;;;;;;;22.70;54.30;;;;;;5075094;28;1361;-69
2021/10/30 07:50:50;;;;;;;;;;;22.60;54.30;;;;;;5092754;28;1443;-69
2021/10/30 07:53:16;;;;;;;;;;;22.60;54.30;;;;;;5092505;28;1564;-68
2021/10/30 07:55:41;;;;;;;;;;;22.70;54.30;;;;;;5092800;28;1847;-69
2021/10/30 07:58:07;;;;;;;;;;;22.70;54.30;;;;;;5093360;28;1356;-68
2021/10/30 08:00:32;;;;;;;;;;;22.70;54.30;;;;;;5093189;28;1547;-69
2021/10/30 08:02:58;;;;;;;;;;;22.70;54.30;;;;;;5091868;28;1918;-69
2021/10/30 08:05:23;;;;;;;;;;;22.70;54.30;;;;;;5092556;28;1202;-68
2021/10/30 08:07:49;;;;;;;;;;;22.70;54.30;;;;;;5092872;28;1359;-70
2021/10/30 08:10:14;;;;;;;;;;;22.70;54.30;;;;;;5092776;28;1502;-70
2021/10/30 08:12:40;;;;;;;;;;;22.70;54.30;;;;;;5073761;28;1629;-69
2021/10/30 08:15:05;;;;;;;;;;;22.70;54.30;;;;;;5070568;28;1622;-69
2021/10/30 08:17:31;;;;;;;;;;;22.60;54.30;;;;;;5083699;28;1391;-69
2021/10/30 08:19:57;;;;;;;;;;;22.60;54.30;;;;;;5073022;28;1621;-69
2021/10/30 08:22:22;;;;;;;;;;;22.60;54.30;;;;;;5053521;28;1942;-70
2021/10/30 08:24:49;;;;;;;;;;;22.60;54.30;;;;;;5089699;28;1741;-69
2021/10/30 08:27:15;;;;;;;;;;;22.60;54.40;;;;;;5092392;28;1662;-70
2021/10/30 08:29:41;;;;;;;;;;;22.60;54.50;;;;;;5074579;28;1902;-69
2021/10/30 08:32:07;;;;;;;;;;;22.60;54.50;;;;;;5073468;28;1498;-69
2021/10/30 08:34:33;;;;;;;;;;;22.60;54.50;;;;;;5074509;28;1305;-69
2021/10/30 08:36:58;;;;;;;;;;;22.60;54.60;;;;;;5092355;28;1621;-69
2021/10/30 08:39:23;;;;;;;;;;;22.50;54.60;;;;;;5092624;28;1380;-69
2021/10/30 08:41:49;;;;;;;;;;;22.50;54.60;;;;;;5091737;28;1975;-69
2021/10/30 08:44:14;;;;;;;;;;;22.50;54.70;;;;;;5092159;28;1612;-69
2021/10/30 08:46:40;;;;;;;;;;;22.50;54.80;;;;;;5074090;28;1639;-69
2021/10/30 08:49:06;;;;;;;;;;;22.50;54.80;;;;;;5092409;28;1554;-69
2021/10/30 08:51:33;;;;;;;;;;;22.40;54.80;;;;;;5054017;22;3904;-71
2021/10/30 08:53:59;;;;;;;;;;;22.40;54.90;;;;;;5017191;28;2056;-69
2021/10/30 08:56:24;;;;;;;;;;;22.40;54.90;;;;;;5027487;28;1699;-70
2021/10/30 08:58:50;;;;;;;;;;;22.40;55.00;;;;;;5025399;28;2449;-70
2021/10/30 09:01:16;;;;;;;;;;;22.40;55.00;;;;;;5029091;28;1304;-70
2021/10/30 09:03:42;;;;;;;;;;;22.40;55.10;;;;;;5014822;28;1914;-70
2021/10/30 09:06:07;;;;;;;;;;;22.40;55.10;;;;;;5014166;28;1895;-70
2021/10/30 09:08:33;;;;;;;;;;;22.30;55.20;;;;;;5016820;28;1229;-70
2021/10/30 09:11:01;;;;;;;;;;;22.30;55.20;;;;;;5017545;28;1363;-70
2021/10/30 09:13:27;;;;;;;;;;;22.30;55.30;;;;;;5034836;28;1192;-70
2021/10/30 09:15:52;;;;;;;;;;;22.30;55.30;;;;;;5016315;28;1244;-69
2021/10/30 09:18:21;;;;;;;;;;;22.30;55.30;;;;;;5044409;28;1246;-70
2021/10/30 09:20:48;;;;;;;;;;;22.30;55.40;;;;;;5029694;28;1291;-68
2021/10/30 09:23:17;;;;;;;;;;;22.30;55.40;;;;;;5016570;28;1910;-69
2021/10/30 09:25:54;;;;;;;;;;;22.20;55.40;;;;;;5026703;28;1306;-68
2021/10/30 09:28:23;;;;;;;;;;;22.30;55.50;;;;;;5030804;28;1105;-69
2021/10/30 09:30:51;;;;;;;;;;;22.20;55.50;;;;;;5011078;28;1378;-69
2021/10/30 09:33:17;;;;;;;;;;;22.20;55.40;;;;;;5033422;28;1284;-68
2021/10/30 09:35:43;;;;;;;;;;;22.30;55.50;;;;;;5027091;28;1223;-69
2021/10/30 09:38:21;;;;;;;;;;;22.30;55.50;;;;;;5000802;28;1376;-69
2021/10/30 09:40:47;;;;;;;;;;;22.20;55.50;;;;;;5027814;28;1301;-68
2021/10/30 09:43:12;;;;;;;;;;;22.30;55.50;;;;;;5026885;28;1910;-69
2021/10/30 09:45:38;;;;;;;;;;;22.30;55.50;;;;;;5026628;28;1318;-69
2021/10/30 09:48:04;;;;;;;;;;;22.30;55.40;;;;;;5015549;28;1292;-69
2021/10/30 09:50:29;;;;;;;;;;;22.30;55.40;;;;;;5026709;28;1286;-69
2021/10/30 09:53:02;;;;;;;;;;;22.30;55.40;;;;;;5014070;28;1189;-69
2021/10/30 09:55:27;;;;;;;;;;;22.40;55.40;;;;;;5016717;28;1902;-69
2021/10/30 09:57:59;;;;;;;;;;;22.40;55.40;;;;;;5017465;28;1592;-68
2021/10/30 10:00:25;;;;;;;;;;;22.40;55.40;;;;;;5033002;28;1532;-69
2021/10/30 10:02:53;;;;;;;;;;;22.40;55.40;;;;;;5035098;28;1967;-69
2021/10/30 10:05:19;;;;;;;;;;;22.40;55.40;;;;;;5017535;28;1691;-70
2021/10/30 10:07:45;;;;;;;;;;;22.40;55.30;;;;;;5035062;28;1594;-70
2021/10/30 10:10:10;;;;;;;;;;;22.40;55.30;;;;;;5017569;28;1697;-70
2021/10/30 10:12:35;;;;;;;;;;;22.40;55.30;;;;;;5034837;28;1650;-70
2021/10/30 10:15:01;;;;;;;;;;;22.40;55.30;;;;;;5035312;28;1400;-70
2021/10/30 10:17:26;;;;;;;;;;;22.40;55.30;;;;;;5034312;28;1585;-70
2021/10/30 10:19:52;;;;;;;;;;;22.40;55.30;;;;;;5034947;28;1542;-69
2021/10/30 10:22:17;;;;;;;;;;;22.40;55.40;;;;;;5016803;28;1898;-70
2021/10/30 10:24:43;;;;;;;;;;;22.40;55.40;;;;;;5017281;28;1332;-70
2021/10/30 10:27:08;;;;;;;;;;;22.40;55.40;;;;;;5034946;28;1173;-70
2021/10/30 10:29:37;;;;;;;;;;;22.40;55.40;;;;;;5034822;28;1607;-69
2021/10/30 10:32:04;;;;;;;;;;;22.30;55.30;;;;;;5016800;28;1005;-70
2021/10/30 10:34:33;;;;;;;;;;;22.30;55.30;;;;;;5016967;28;1400;-69
2021/10/30 10:37:19;;;;;;;;;;;22.30;55.40;;;;;;5017054;28;1246;-69
2021/10/30 10:39:45;;;;;;;;;;;22.30;55.50;;;;;;5017217;28;1876;-70
2021/10/30 10:42:14;;;;;;;;;;;22.30;55.50;;;;;;5034356;28;1961;-70
2021/10/30 10:44:40;;;;;;;;;;;22.30;55.50;;;;;;5017043;28;1501;-70
2021/10/30 10:47:06;;;;;;;;;;;22.30;55.50;;;;;;5034215;28;1425;-69
2021/10/30 10:54:52;;;;;;;;;;;22.30;55.60;;;;;;5034654;28;1535;-70
2021/10/30 10:57:24;;;;;;;;;;;22.30;55.60;;;;;;5016729;28;1598;-70
2021/10/30 11:00:09;;;;;;;;;;;22.30;55.70;;;;;;5016356;28;1402;-70
2021/10/30 11:02:35;;;;;;;;;;;22.30;55.70;;;;;;5034055;28;1910;-70
2021/10/30 11:05:07;;;;;;;;;;;22.30;55.70;;;;;;5016586;28;1801;-71
2021/10/30 11:07:33;;;;;;;;;;;22.30;55.60;;;;;;5034406;28;1374;-70
2021/10/30 11:10:02;;;;;;;;;;;22.30;55.60;;;;;;5016289;28;1375;-70
2021/10/30 11:12:28;;;;;;;;;;;22.30;55.60;;;;;;5016012;28;1373;-70
2021/10/30 11:14:54;;;;;;;;;;;22.40;55.60;;;;;;5033859;28;1361;-69
2021/10/30 11:17:24;;;;;;;;;;;22.40;55.50;;;;;;5015576;28;1628;-69
2021/10/30 11:19:50;;;;;;;;;;;22.40;55.50;;;;;;5041774;28;1397;-69
2021/10/30 11:22:20;;;;;;;;;;;22.40;55.40;;;;;;5014663;28;1907;-69
2021/10/30 11:24:49;;;;;;;;;;;22.40;55.40;;;;;;5041321;28;1502;-70
2021/10/30 11:27:14;;;;;;;;;;;22.40;55.30;;;;;;5030881;28;1966;-70
2021/10/30 11:29:49;;;;;;;;;;;22.50;55.40;;;;;;5014841;28;1564;-71
2021/10/30 11:32:15;;;;;;;;;;;22.50;55.40;;;;;;5015869;28;1444;-70
2021/10/30 11:34:40;;;;;;;;;;;22.50;55.40;;;;;;5033558;28;1722;-71
2021/10/30 11:37:05;;;;;;;;;;;22.40;55.40;;;;;;5033499;28;1592;-71
2021/10/30 11:39:31;;;;;;;;;;;22.40;55.40;;;;;;5033609;28;1613;-71
2021/10/30 11:41:57;;;;;;;;;;;22.40;55.40;;;;;;5033179;28;1898;-71
2021/10/30 11:44:22;;;;;;;;;;;22.40;55.40;;;;;;5033618;28;1414;-71
2021/10/30 11:46:53;;;;;;;;;;;22.40;55.50;;;;;;5033269;28;1625;-71
2021/10/30 11:49:21;;;;;;;;;;;22.40;55.60;;;;;;5032442;28;1709;-70
2021/10/30 11:51:46;;;;;;;;;;;22.40;55.60;;;;;;5026459;28;1294;-71
2021/10/30 11:54:12;;;;;;;;;;;22.40;55.60;;;;;;5024876;28;1345;-71
2021/10/30 11:56:38;;;;;;;;;;;22.30;55.70;;;;;;5024394;28;1231;-71
2021/10/30 11:59:04;;;;;;;;;;;22.30;55.70;;;;;;5025853;28;1244;-70
2021/10/30 12:01:29;;;;;;;;;;;22.30;55.80;;;;;;5037752;28;1974;-70
2021/10/30 12:03:59;;;;;;;;;;;22.30;55.80;;;;;;5025840;28;1444;-70
2021/10/30 12:06:24;;;;;;;;;;;22.30;55.80;;;;;;5038696;28;1270;-70
2021/10/30 12:08:50;;;;;;;;;;;22.30;55.90;;;;;;5041680;28;1298;-70
2021/10/30 12:11:17;;;;;;;;;;;22.20;55.90;;;;;;5013108;28;1507;-70
2021/10/30 12:13:43;;;;;;;;;;;22.20;55.90;;;;;;5042013;28;1315;-70
2021/10/30 12:16:09;;;;;;;;;;;22.20;56.00;;;;;;5026337;28;1145;-70
2021/10/30 12:18:34;;;;;;;;;;;22.20;56.10;;;;;;5025454;28;1351;-70
2021/10/30 12:21:00;;;;;;;;;;;22.20;56.10;;;;;;5038372;28;1385;-70
2021/10/30 12:23:28;;;;;;;;;;;22.20;56.10;;;;;;5027731;28;1957;-70
2021/10/30 12:26:04;;;;;;;;;;;22.10;56.20;;;;;;5029758;28;1117;-70
2021/10/30 12:28:30;;;;;;;;;;;22.10;56.30;;;;;;5032722;28;1301;-70
2021/10/30 12:30:56;;;;;;;;;;;22.10;56.30;;;;;;5032564;28;1359;-70
2021/10/30 12:33:21;;;;;;;;;;;22.10;56.30;;;;;;5032551;28;1092;-70
2021/10/30 12:35:49;;;;;;;;;;;22.00;56.40;;;;;;5028146;28;1332;-69
2021/10/30 12:38:15;;;;;;;;;;;22.00;56.40;;;;;;5011491;28;1233;-70
2021/10/30 12:40:41;;;;;;;;;;;22.00;56.50;;;;;;5029244;28;1239;-70
2021/10/30 12:43:10;;;;;;;;;;;22.00;56.50;;;;;;5033360;28;1894;-70
2021/10/30 12:45:42;;;;;;;;;;;22.00;56.60;;;;;;5028332;28;1213;-70
2021/10/30 12:48:13;;;;;;;;;;;21.90;56.50;;;;;;5027915;28;1310;-70
2021/10/30 12:50:39;;;;;;;;;;;21.90;56.60;;;;;;5043883;28;1387;-70
2021/10/30 12:53:04;;;;;;;;;;;21.90;56.60;;;;;;5017188;28;1205;-69
2021/10/30 12:55:30;;;;;;;;;;;21.90;56.70;;;;;;5027850;28;1280;-69
2021/10/30 12:57:59;;;;;;;;;;;21.90;56.70;;;;;;5029810;28;1169;-70
2021/10/30 13:00:35;;;;;;;;;;;21.90;56.80;;;;;;5049625;28;1302;-70
2021/10/30 13:03:13;;;;;;;;;;;21.90;56.80;;;;;;5018309;28;1898;-70
2021/10/30 13:05:41;;;;;;;;;;;21.80;56.80;;;;;;5018620;28;1401;-70
2021/10/30 13:08:06;;;;;;;;;;;21.80;56.90;;;;;;5027118;28;1165;-69
2021/10/30 13:10:33;;;;;;;;;;;21.80;56.90;;;;;;5031328;28;1385;-69
2021/10/30 13:12:58;;;;;;;;;;;21.80;56.90;;;;;;5028852;28;1228;-69
2021/10/30 13:15:24;;;;;;;;;;;21.80;57.00;;;;;;5031521;28;1314;-69
2021/10/30 13:17:49;;;;;;;;;;;21.80;57.10;;;;;;5027968;28;1156;-69
2021/10/30 13:20:14;;;;;;;;;;;21.70;57.10;;;;;;5029785;28;1273;-69
2021/10/30 13:22:40;;;;;;;;;;;21.70;57.10;;;;;;5016844;28;1906;-71
2021/10/30 13:25:06;;;;;;;;;;;21.70;57.20;;;;;;5016687;28;2776;-70
2021/10/30 13:27:32;;;;;;;;;;;21.70;57.20;;;;;;5017452;28;1614;-70
2021/10/30 13:29:58;;;;;;;;;;;21.70;57.20;;;;;;5035266;28;1635;-70
2021/10/30 13:32:23;;;;;;;;;;;21.70;57.30;;;;;;5035176;28;1762;-70
2021/10/30 13:34:49;;;;;;;;;;;21.70;57.30;;;;;;5035750;28;1599;-70
2021/10/30 13:37:14;;;;;;;;;;;21.70;57.30;;;;;;5034789;28;1602;-69
2021/10/30 13:39:41;;;;;;;;;;;21.60;57.30;;;;;;5034816;28;1700;-70
2021/10/30 13:42:08;;;;;;;;;;;21.60;57.40;;;;;;5034276;28;1898;-70
2021/10/30 13:44:33;;;;;;;;;;;21.60;57.40;;;;;;5035049;28;1596;-70
2021/10/30 13:46:59;;;;;;;;;;;21.60;57.50;;;;;;5035143;28;1581;-70
2021/10/30 13:49:24;;;;;;;;;;;21.60;57.50;;;;;;5035649;28;1659;-70
2021/10/30 13:51:50;;;;;;;;;;;21.60;57.50;;;;;;5033404;28;1539;-70
2021/10/30 13:54:16;;;;;;;;;;;21.60;57.60;;;;;;5014531;28;1941;-69
2021/10/30 13:56:41;;;;;;;;;;;21.50;57.60;;;;;;5032062;28;1297;-69
2021/10/30 13:59:07;;;;;;;;;;;21.50;57.60;;;;;;5030208;28;1481;-69
2021/10/30 14:01:32;;;;;;;;;;;21.50;57.70;;;;;;5034440;28;1975;-69
2021/10/30 14:03:57;;;;;;;;;;;21.50;57.70;;;;;;5017353;28;1605;-69
2021/10/30 14:06:23;;;;;;;;;;;21.50;57.70;;;;;;5034956;28;1628;-69
2021/10/30 14:08:49;;;;;;;;;;;21.50;57.80;;;;;;5032088;28;2762;-69
2021/10/30 14:11:14;;;;;;;;;;;21.50;57.80;;;;;;5034161;28;1703;-69
2021/10/30 14:13:40;;;;;;;;;;;21.50;57.80;;;;;;5016934;28;1635;-69
2021/10/30 14:16:06;;;;;;;;;;;21.40;57.80;;;;;;5016590;28;1685;-69
2021/10/30 14:18:32;;;;;;;;;;;21.40;57.90;;;;;;5049958;28;1447;-69
2021/10/30 14:20:57;;;;;;;;;;;21.40;57.90;;;;;;5015419;28;1791;-69
2021/10/30 14:23:24;;;;;;;;;;;21.40;57.90;;;;;;5027086;28;1902;-69
2021/10/30 14:25:49;;;;;;;;;;;21.40;58.00;;;;;;5016745;28;1446;-69
2021/10/30 14:28:15;;;;;;;;;;;21.40;58.00;;;;;;5034344;28;1365;-69
2021/10/30 14:30:40;;;;;;;;;;;21.40;58.00;;;;;;5027752;28;1709;-69